createdAt,value
2018-08-24T00:01:11.289Z,59.34
2018-08-24T00:03:39.579Z,57.05
2018-08-24T00:06:07.906Z,58.68
2018-08-24T00:08:36.243Z,58.79
2018-08-24T00:11:04.531Z,57.96
2018-08-24T00:13:35.818Z,57.52
2018-08-24T00:16:04.113Z,57.46
2018-08-24T00:18:32.496Z,57.71
2018-08-24T00:21:00.780Z,58.32
2018-08-24T00:23:29.122Z,58.42
2018-08-24T00:25:57.422Z,59.57
2018-08-24T00:28:25.781Z,58.83
2018-08-24T00:30:54.135Z,58.46
2018-08-24T00:33:22.455Z,58.91
2018-08-24T00:35:50.778Z,59.28
2018-08-24T00:38:19.057Z,57.51
2018-08-24T00:40:48.600Z,59.31
2018-08-24T00:43:16.912Z,57.89
2018-08-24T00:45:45.284Z,57.50
2018-08-24T00:48:13.658Z,59.51
2018-08-24T00:50:42.064Z,58.65
2018-08-24T00:53:10.437Z,57.43
2018-08-24T00:55:38.863Z,57.00
2018-08-24T00:58:07.270Z,59.21
2018-08-24T01:00:40.873Z,57.52
2018-08-24T01:03:09.386Z,58.20
2018-08-24T01:05:37.738Z,60.58
2018-08-24T01:08:08.267Z,58.35
2018-08-24T01:10:37.295Z,59.11
2018-08-24T01:13:09.924Z,59.79
2018-08-24T01:15:59.551Z,61.15
2018-08-24T01:18:33.129Z,60.89
2018-08-24T01:21:01.662Z,59.89
2018-08-24T01:23:31.755Z,60.64
2018-08-24T01:26:00.333Z,59.41
2018-08-24T01:28:30.906Z,59.27
2018-08-24T01:31:05.267Z,59.77
2018-08-24T01:33:33.901Z,58.39
2018-08-24T01:36:02.219Z,58.88
2018-08-24T01:38:30.495Z,59.48
2018-08-24T01:40:58.840Z,60.87
2018-08-24T01:43:27.151Z,60.99
2018-08-24T01:46:01.239Z,61.27
2018-08-24T01:48:29.707Z,60.44
2018-08-24T01:50:58.179Z,62.54
2018-08-24T01:53:26.662Z,59.08
2018-08-24T01:55:55.203Z,61.59
2018-08-24T01:58:23.709Z,61.91
2018-08-24T02:00:52.171Z,61.54
2018-08-24T02:03:20.519Z,60.50
2018-08-24T02:05:48.827Z,61.31
2018-08-24T02:08:17.202Z,63.49
2018-08-24T02:10:45.484Z,61.46
2018-08-24T02:13:19.030Z,62.31
2018-08-24T02:15:47.943Z,61.76
2018-08-24T02:18:21.622Z,61.96
2018-08-24T02:23:01.324Z,62.88
2018-08-24T02:25:29.691Z,61.43
2018-08-24T02:27:58.183Z,62.11
2018-08-24T02:30:26.770Z,61.86
2018-08-24T02:32:55.024Z,62.54
2018-08-24T02:35:23.344Z,61.69
2018-08-24T02:37:52.391Z,63.45
2018-08-24T02:40:20.707Z,62.93
2018-08-24T02:42:48.966Z,62.76
2018-08-24T02:45:17.410Z,62.80
2018-08-24T02:47:45.671Z,63.85
2018-08-24T02:50:13.947Z,63.08
2018-08-24T02:52:42.267Z,63.95
2018-08-24T02:55:10.539Z,61.39
2018-08-24T02:57:38.833Z,63.28
2018-08-24T03:00:30.302Z,63.12
2018-08-24T03:02:58.628Z,63.37
2018-08-24T03:05:27.128Z,63.74
2018-08-24T03:07:55.263Z,63.73
2018-08-24T03:10:23.560Z,63.72
2018-08-24T03:12:51.870Z,63.02
2018-08-24T03:15:20.159Z,61.70
2018-08-24T03:17:53.377Z,60.50
2018-08-24T03:20:22.093Z,59.83
2018-08-24T03:22:50.512Z,59.92
2018-08-24T03:25:18.957Z,63.41
2018-08-24T03:27:47.419Z,61.66
2018-08-24T03:30:15.867Z,63.02
2018-08-24T03:32:44.432Z,64.89
2018-08-24T03:35:12.794Z,65.51
2018-08-24T03:37:41.221Z,65.92
2018-08-24T03:40:09.730Z,68.58
2018-08-24T03:42:38.166Z,66.38
2018-08-24T03:45:07.623Z,65.84
2018-08-24T03:47:36.122Z,68.29
2018-08-24T03:50:04.836Z,68.89
2018-08-24T03:52:33.314Z,69.35
2018-08-24T03:55:01.863Z,68.75
2018-08-24T03:57:30.327Z,69.02
2018-08-24T03:59:58.769Z,70.10
2018-08-24T04:02:27.186Z,68.85
2018-08-24T04:04:55.538Z,68.79
2018-08-24T04:07:23.859Z,69.34
2018-08-24T04:09:52.164Z,69.95
2018-08-24T04:12:20.438Z,68.83
2018-08-24T04:14:48.715Z,71.36
2018-08-24T04:17:22.639Z,70.25
2018-08-24T04:19:51.188Z,71.36
2018-08-24T04:22:19.711Z,71.57
2018-08-24T04:24:48.090Z,69.22
2018-08-24T04:27:17.510Z,71.91
2018-08-24T04:29:45.935Z,71.41
2018-08-24T04:32:14.443Z,71.51
2018-08-24T04:34:42.991Z,70.40
2018-08-24T04:37:18.003Z,69.22
2018-08-24T04:39:46.511Z,70.43
2018-08-24T04:42:15.020Z,70.55
2018-08-24T04:44:43.511Z,70.11
2018-08-24T04:47:12.036Z,71.34
2018-08-24T04:49:40.580Z,69.48
2018-08-24T04:52:09.029Z,70.88
2018-08-24T04:54:37.536Z,71.74
2018-08-24T04:57:06.055Z,70.47
2018-08-24T04:59:34.551Z,69.19
2018-08-24T05:02:03.249Z,69.60
2018-08-24T05:04:31.951Z,69.75
2018-08-24T05:07:00.562Z,70.58
2018-08-24T05:09:29.191Z,70.10
2018-08-24T05:11:58.874Z,70.85
2018-08-24T05:14:27.501Z,71.19
2018-08-24T05:16:56.065Z,70.02
2018-08-24T05:19:24.596Z,68.31
2018-08-24T05:21:53.039Z,70.69
2018-08-24T05:24:21.776Z,70.37
2018-08-24T05:26:50.234Z,70.51
2018-08-24T05:29:18.827Z,68.96
2018-08-24T05:31:47.403Z,67.73
2018-08-24T05:34:15.840Z,70.53
2018-08-24T05:36:44.438Z,69.29
2018-08-24T05:39:12.959Z,67.07
2018-08-24T05:41:41.343Z,68.40
2018-08-24T05:44:09.703Z,67.72
2018-08-24T05:46:38.143Z,67.00
2018-08-24T05:49:06.580Z,67.45
2018-08-24T05:51:35.079Z,65.84
2018-08-24T05:54:03.503Z,65.39
2018-08-24T05:56:32.020Z,65.12
2018-08-24T05:59:00.571Z,65.41
2018-08-24T06:01:29.084Z,65.38
2018-08-24T06:03:57.587Z,66.69
2018-08-24T06:06:26.132Z,69.33
2018-08-24T06:08:59.885Z,68.43
2018-08-24T06:11:28.452Z,67.61
2018-08-24T06:13:56.989Z,67.39
2018-08-24T06:16:25.555Z,68.60
2018-08-24T06:18:54.190Z,69.55
2018-08-24T06:21:22.900Z,70.08
2018-08-24T06:23:51.472Z,68.39
2018-08-24T06:26:20.051Z,71.13
2018-08-24T06:28:48.738Z,72.31
2018-08-24T06:31:17.305Z,69.52
2018-08-24T06:33:45.891Z,69.80
2018-08-24T06:36:14.459Z,71.50
2018-08-24T06:38:43.583Z,68.97
2018-08-24T06:41:12.032Z,67.15
2018-08-24T06:43:40.717Z,67.87
2018-08-24T06:46:09.440Z,70.30
2018-08-24T06:48:37.843Z,69.61
2018-08-24T06:51:06.351Z,70.24
2018-08-24T06:53:34.929Z,70.01
2018-08-24T06:56:03.391Z,70.29
2018-08-24T06:58:31.882Z,70.25
2018-08-24T07:01:00.365Z,70.92
2018-08-24T07:03:28.840Z,69.71
2018-08-24T07:05:57.337Z,68.36
2018-08-24T07:08:25.879Z,67.75
2018-08-24T07:10:54.430Z,68.75
2018-08-24T07:13:23.691Z,69.57
2018-08-24T07:15:52.185Z,69.89
2018-08-24T07:18:20.736Z,70.10
2018-08-24T07:20:50.024Z,69.24
2018-08-24T07:23:18.443Z,69.19
2018-08-24T07:25:46.943Z,68.73
2018-08-24T07:28:15.423Z,68.03
2018-08-24T07:30:43.999Z,69.56
2018-08-24T07:33:13.565Z,68.96
2018-08-24T07:35:42.012Z,67.11
2018-08-24T07:38:10.447Z,69.21
2018-08-24T07:40:39.008Z,70.54
2018-08-24T07:43:07.583Z,70.70
2018-08-24T07:45:36.165Z,67.75
2018-08-24T07:48:04.749Z,69.01
2018-08-24T07:50:33.331Z,69.45
2018-08-24T07:53:01.809Z,67.50
2018-08-24T07:55:30.227Z,68.16
2018-08-24T07:57:58.707Z,68.49
2018-08-24T08:00:27.161Z,67.71
2018-08-24T08:02:55.659Z,67.28
2018-08-24T08:05:24.147Z,68.05
2018-08-24T08:07:52.681Z,67.00
2018-08-24T08:10:21.255Z,66.74
2018-08-24T08:12:49.876Z,67.77
2018-08-24T08:15:18.468Z,67.48
2018-08-24T08:17:47.100Z,68.20
2018-08-24T08:20:15.734Z,68.96
2018-08-24T08:22:44.156Z,68.03
2018-08-24T08:25:12.617Z,66.73
2018-08-24T08:27:41.090Z,67.71
2018-08-24T08:30:09.586Z,66.43
2018-08-24T08:32:38.051Z,66.46
2018-08-24T08:35:06.920Z,64.73
2018-08-24T08:37:35.577Z,63.90
2018-08-24T08:40:04.467Z,65.25
2018-08-24T08:42:32.957Z,64.18
2018-08-24T08:45:01.499Z,64.18
2018-08-24T08:47:30.015Z,63.33
2018-08-24T08:49:58.580Z,63.04
2018-08-24T08:52:27.077Z,61.73
2018-08-24T08:54:55.708Z,62.18
2018-08-24T08:57:24.198Z,59.87
2018-08-24T08:59:52.690Z,59.70
2018-08-24T09:02:21.266Z,59.01
2018-08-24T09:04:49.991Z,61.90
2018-08-24T09:07:18.375Z,61.99
2018-08-24T09:09:47.043Z,60.90
2018-08-24T09:12:15.592Z,58.33
2018-08-24T09:14:44.090Z,59.47
2018-08-24T09:17:17.692Z,56.97
2018-08-24T09:19:51.501Z,55.73
2018-08-24T09:22:25.183Z,53.15
2018-08-24T09:24:59.145Z,53.62
2018-08-24T09:27:33.716Z,54.22
2018-08-24T09:30:03.563Z,56.24
2018-08-24T09:32:32.160Z,57.40
2018-08-24T09:35:00.483Z,57.07
2018-08-24T09:37:34.973Z,58.63
2018-08-24T09:40:03.446Z,59.47
2018-08-24T09:42:31.848Z,59.77
2018-08-24T09:45:00.408Z,58.56
2018-08-24T09:47:34.295Z,59.86
2018-08-24T09:50:08.537Z,54.88
2018-08-24T09:52:37.138Z,51.76
2018-08-24T09:55:05.660Z,49.74
2018-08-24T09:57:34.182Z,48.49
2018-08-24T10:00:02.714Z,45.48
2018-08-24T10:02:36.616Z,43.71
2018-08-24T10:05:10.790Z,41.85
2018-08-24T10:07:44.292Z,38.57
2018-08-24T10:10:12.850Z,38.83
2018-08-24T10:12:41.363Z,42.41
2018-08-24T10:15:10.239Z,45.49
2018-08-24T10:17:38.746Z,46.28
2018-08-24T10:20:07.460Z,45.92
2018-08-24T10:22:35.954Z,45.85
2018-08-24T10:25:04.555Z,47.45
2018-08-24T10:27:33.199Z,48.38
2018-08-24T10:30:01.749Z,50.28
2018-08-24T10:32:30.327Z,47.64
2018-08-24T10:34:58.786Z,47.80
2018-08-24T10:37:27.321Z,48.18
2018-08-24T10:39:55.774Z,48.32
2018-08-24T10:42:24.366Z,46.64
2018-08-24T10:44:52.877Z,48.96
2018-08-24T10:47:21.427Z,49.68
2018-08-24T10:49:49.816Z,52.26
2018-08-24T10:52:18.269Z,52.07
2018-08-24T10:54:47.095Z,51.57
2018-08-24T10:57:15.553Z,51.93
2018-08-24T10:59:43.951Z,53.32
2018-08-24T11:02:12.332Z,53.93
2018-08-24T11:04:40.606Z,57.98
2018-08-24T11:07:08.941Z,58.34
2018-08-24T11:09:37.431Z,60.24
2018-08-24T11:12:05.742Z,61.38
2018-08-24T11:14:34.169Z,59.87
2018-08-24T11:17:02.483Z,57.27
2018-08-24T11:19:30.855Z,55.16
2018-08-24T11:21:59.141Z,53.39
2018-08-24T11:24:27.415Z,50.07
2018-08-24T11:26:55.747Z,46.77
2018-08-24T11:29:24.102Z,43.98
2018-08-24T11:31:52.392Z,46.27
2018-08-24T11:34:20.694Z,45.78
2018-08-24T11:36:49.071Z,46.78
2018-08-24T11:39:17.453Z,46.89
2018-08-24T11:41:45.935Z,46.68
2018-08-24T11:44:15.239Z,47.79
2018-08-24T11:46:43.724Z,50.18
2018-08-24T11:49:12.219Z,49.66
2018-08-24T11:51:40.723Z,49.25
2018-08-24T11:54:09.387Z,46.85
2018-08-24T11:59:05.206Z,46.34
2018-08-24T12:01:33.644Z,47.67
2018-08-24T12:04:02.188Z,48.95
2018-08-24T12:06:30.676Z,51.00
2018-08-24T12:08:59.266Z,51.15
2018-08-24T12:11:27.985Z,51.50
2018-08-24T12:13:56.619Z,52.33
2018-08-24T12:16:25.079Z,48.37
2018-08-24T12:18:53.466Z,49.30
2018-08-24T12:21:21.950Z,48.58
2018-08-24T12:23:50.247Z,46.91
2018-08-24T12:26:18.650Z,47.44
2018-08-24T12:28:47.030Z,48.64
2018-08-24T12:31:15.596Z,47.11
2018-08-24T12:33:44.262Z,47.21
2018-08-24T12:36:14.856Z,49.54
2018-08-24T12:38:43.445Z,48.64
2018-08-24T12:41:12.305Z,47.59
2018-08-24T12:43:40.868Z,45.36
2018-08-24T12:46:09.604Z,44.57
2018-08-24T12:48:38.203Z,46.46
2018-08-24T12:51:06.695Z,46.01
2018-08-24T12:53:35.366Z,44.86
2018-08-24T12:56:03.929Z,45.77
2018-08-24T12:58:32.424Z,45.14
2018-08-24T13:01:00.904Z,43.84
2018-08-24T13:03:29.399Z,43.47
2018-08-24T13:05:58.088Z,43.65
2018-08-24T13:08:26.602Z,41.79
2018-08-24T13:10:55.131Z,42.78
2018-08-24T13:13:23.599Z,44.70
2018-08-24T13:15:52.066Z,44.27
2018-08-24T13:18:20.744Z,43.28
2018-08-24T13:20:49.293Z,43.58
2018-08-24T13:23:17.860Z,43.05
2018-08-24T13:25:46.494Z,42.46
2018-08-24T13:28:14.989Z,41.84
2018-08-24T13:30:45.737Z,42.54
2018-08-24T13:33:14.223Z,43.79
2018-08-24T13:35:42.752Z,42.76
2018-08-24T13:38:11.135Z,44.06
2018-08-24T13:40:39.812Z,43.63
2018-08-24T13:43:08.961Z,43.17
2018-08-24T13:45:37.442Z,41.74
2018-08-24T13:48:06.115Z,41.76
2018-08-24T13:50:34.667Z,40.23
2018-08-24T13:53:03.258Z,40.18
2018-08-24T13:55:32.130Z,39.61
2018-08-24T13:58:00.810Z,38.96
2018-08-24T14:00:29.323Z,37.75
2018-08-24T14:02:58.027Z,35.84
2018-08-24T14:05:26.778Z,31.62
2018-08-24T14:07:55.206Z,31.81
2018-08-24T14:10:23.738Z,32.60
2018-08-24T14:12:53.139Z,32.06
2018-08-24T14:15:21.588Z,31.40
2018-08-24T14:17:52.813Z,31.79
2018-08-24T14:20:22.251Z,31.85
2018-08-24T14:22:50.758Z,29.80
2018-08-24T14:25:19.636Z,29.59
2018-08-24T14:27:48.332Z,29.84
2018-08-24T14:30:16.843Z,30.21
2018-08-24T14:32:45.187Z,30.01
2018-08-24T14:35:13.724Z,31.96
2018-08-24T14:37:42.646Z,32.20
2018-08-24T14:40:11.142Z,31.70
2018-08-24T14:42:39.636Z,33.01
2018-08-24T14:45:08.075Z,32.57
2018-08-24T14:47:36.553Z,31.44
2018-08-24T14:50:05.219Z,32.17
2018-08-24T14:52:33.703Z,32.67
2018-08-24T14:55:02.237Z,32.49
2018-08-24T14:57:30.699Z,33.04
2018-08-24T14:59:59.221Z,31.84
2018-08-24T15:02:27.663Z,31.89
2018-08-24T15:04:56.138Z,31.76
2018-08-24T15:07:24.618Z,32.31
2018-08-24T15:09:53.085Z,31.68
2018-08-24T15:12:21.544Z,31.92
2018-08-24T15:14:50.008Z,32.24
2018-08-24T15:17:18.466Z,33.59
2018-08-24T15:19:46.824Z,32.71
2018-08-24T15:22:15.191Z,32.85
2018-08-24T15:24:43.539Z,32.11
2018-08-24T15:27:11.915Z,32.39
2018-08-24T15:29:40.407Z,33.21
2018-08-24T15:32:09.726Z,33.28
2018-08-24T15:34:38.160Z,33.13
2018-08-24T15:37:06.540Z,34.21
2018-08-24T15:39:34.975Z,32.66
2018-08-24T15:42:03.776Z,34.35
2018-08-24T15:44:32.312Z,33.81
2018-08-24T15:47:01.077Z,34.09
2018-08-24T15:49:29.832Z,33.72
2018-08-24T15:51:58.343Z,35.01
2018-08-24T15:54:28.092Z,35.12
2018-08-24T15:56:56.571Z,35.31
2018-08-24T15:59:26.185Z,35.18
2018-08-24T16:01:54.701Z,35.07
2018-08-24T16:04:23.243Z,34.73
2018-08-24T16:06:52.751Z,35.94
2018-08-24T16:09:21.268Z,35.70
2018-08-24T16:11:49.815Z,35.57
2018-08-24T16:14:18.443Z,35.16
2018-08-24T16:16:47.272Z,35.64
2018-08-24T16:19:15.807Z,35.72
2018-08-24T16:21:44.523Z,36.10
2018-08-24T16:24:12.940Z,35.47
2018-08-24T16:26:41.451Z,36.35
2018-08-24T16:29:09.879Z,36.13
2018-08-24T16:31:38.453Z,37.37
2018-08-24T16:34:06.965Z,37.15
2018-08-24T16:36:35.447Z,35.84
2018-08-24T16:39:04.103Z,36.32
2018-08-24T16:41:32.368Z,35.99
2018-08-24T16:44:00.698Z,37.06
2018-08-24T16:46:29.182Z,37.27
2018-08-24T16:48:57.447Z,36.61
2018-08-24T16:51:25.801Z,36.94
2018-08-24T16:53:54.063Z,37.46
2018-08-24T16:56:22.560Z,36.43
2018-08-24T16:58:51.199Z,36.07
2018-08-24T17:01:19.631Z,36.13
2018-08-24T17:03:48.038Z,36.67
2018-08-24T17:06:16.348Z,36.44
2018-08-24T17:08:45.249Z,36.63
2018-08-24T17:11:13.530Z,36.35
2018-08-24T17:13:41.822Z,36.08
2018-08-24T17:16:10.212Z,36.84
2018-08-24T17:18:38.564Z,35.85
2018-08-24T17:21:06.862Z,36.73
2018-08-24T17:23:35.147Z,35.97
2018-08-24T17:26:03.437Z,36.45
2018-08-24T17:28:32.050Z,36.29
2018-08-24T17:31:00.611Z,36.60
2018-08-24T17:33:29.180Z,36.18
2018-08-24T17:35:57.461Z,37.20
2018-08-24T17:38:25.899Z,37.91
2018-08-24T17:40:55.130Z,37.53
2018-08-24T17:43:23.443Z,36.09
2018-08-24T17:45:51.727Z,37.23
2018-08-24T17:48:20.165Z,36.58
2018-08-24T17:50:49.214Z,37.17
2018-08-24T17:53:18.331Z,37.03
2018-08-24T17:58:28.415Z,37.77
2018-08-24T18:00:56.905Z,39.00
2018-08-24T18:03:25.530Z,38.79
2018-08-24T18:05:55.092Z,39.12
2018-08-24T18:08:23.720Z,39.21
2018-08-24T18:10:52.544Z,39.13
2018-08-24T18:13:21.189Z,38.92
2018-08-24T18:15:49.868Z,39.41
2018-08-24T18:18:18.342Z,38.91
2018-08-24T18:20:46.771Z,39.87
2018-08-24T18:23:15.228Z,39.31
2018-08-24T18:25:43.623Z,39.35
2018-08-24T18:28:12.112Z,39.19
2018-08-24T18:30:41.454Z,39.44
2018-08-24T18:33:09.922Z,39.11
2018-08-24T18:35:38.364Z,38.65
2018-08-24T18:38:07.824Z,37.93
2018-08-24T18:40:36.265Z,39.62
2018-08-24T18:43:04.943Z,39.60
2018-08-24T18:45:33.583Z,40.29
2018-08-24T18:48:02.463Z,40.08
2018-08-24T18:50:34.596Z,38.68
2018-08-24T18:53:04.291Z,39.44
2018-08-24T18:55:33.298Z,40.21
2018-08-24T18:58:01.914Z,40.74
2018-08-24T19:00:30.339Z,40.41
2018-08-24T19:02:58.661Z,40.08
2018-08-24T19:05:30.703Z,39.53
2018-08-24T19:08:04.516Z,41.27
2018-08-24T19:10:37.531Z,40.06
2018-08-24T19:13:05.803Z,39.25
2018-08-24T19:15:34.447Z,40.51
2018-08-24T19:18:08.277Z,41.05
2018-08-24T19:20:41.988Z,40.75
2018-08-24T19:23:10.613Z,40.93
2018-08-24T19:25:39.367Z,41.10
2018-08-24T19:28:13.230Z,40.81
2018-08-24T19:30:43.503Z,41.15
2018-08-24T19:33:11.973Z,40.54
2018-08-24T19:35:42.349Z,40.99
2018-08-24T19:38:10.795Z,41.50
2018-08-24T19:40:44.456Z,41.45
2018-08-24T19:43:12.756Z,41.49
2018-08-24T19:45:41.259Z,40.93
2018-08-24T19:48:14.978Z,40.90
2018-08-24T19:50:43.283Z,41.50
2018-08-24T19:53:12.076Z,41.91
2018-08-24T19:55:41.448Z,41.76
2018-08-24T19:58:15.114Z,42.24
2018-08-24T20:00:44.609Z,42.98
2018-08-24T20:03:12.915Z,42.76
2018-08-24T20:05:41.262Z,43.03
2018-08-24T20:08:15.969Z,44.54
2018-08-24T20:10:44.392Z,45.12
2018-08-24T20:13:12.941Z,42.72
2018-08-24T20:15:46.595Z,44.21
2018-08-24T20:20:49.331Z,44.23
2018-08-24T20:23:17.806Z,44.77
2018-08-24T20:25:46.191Z,45.26
2018-08-24T20:28:14.642Z,46.03
2018-08-24T20:30:43.213Z,46.53
2018-08-24T20:33:11.528Z,46.57
2018-08-24T20:35:42.245Z,46.35
2018-08-24T20:38:11.825Z,46.80
2018-08-24T20:40:40.140Z,45.92
2018-08-24T20:43:08.510Z,46.96
2018-08-24T20:45:44.702Z,47.43
2018-08-24T20:48:12.985Z,47.04
2018-08-24T20:50:41.375Z,48.09
2018-08-24T20:53:14.674Z,49.01
2018-08-24T20:55:44.967Z,48.38
2018-08-24T20:58:13.616Z,49.47
2018-08-24T21:00:42.291Z,49.23
2018-08-24T21:03:13.804Z,49.38
2018-08-24T21:05:44.391Z,49.36
2018-08-24T21:08:12.788Z,50.15
2018-08-24T21:10:41.359Z,49.25
2018-08-24T21:13:12.730Z,49.96
2018-08-24T21:15:41.168Z,49.35
2018-08-24T21:18:09.865Z,50.62
2018-08-24T21:20:39.182Z,52.08
2018-08-24T21:23:09.167Z,52.54
2018-08-24T21:25:37.977Z,52.55
2018-08-24T21:28:09.992Z,53.03
2018-08-24T21:30:38.596Z,53.14
2018-08-24T21:33:07.010Z,52.96
2018-08-24T21:35:35.467Z,52.20
2018-08-24T21:40:50.923Z,52.72
2018-08-24T21:43:19.271Z,52.80
2018-08-24T21:45:47.828Z,53.74
2018-08-24T21:48:16.142Z,52.58
2018-08-24T21:50:44.531Z,52.77
2018-08-24T21:53:13.054Z,52.13
2018-08-24T21:55:41.482Z,52.65
2018-08-24T21:58:09.980Z,53.00
2018-08-24T22:00:42.533Z,52.43
2018-08-24T22:03:12.481Z,53.19
2018-08-24T22:05:41.217Z,53.72
2018-08-24T22:08:09.766Z,53.53
2018-08-24T22:10:38.293Z,54.08
2018-08-24T22:13:06.828Z,53.75
2018-08-24T22:15:35.556Z,53.06
2018-08-24T22:18:04.091Z,53.83
2018-08-24T22:20:32.547Z,54.13
2018-08-24T22:23:01.005Z,50.71
2018-08-24T22:25:29.422Z,51.76
2018-08-24T22:27:57.876Z,51.15
2018-08-24T22:30:26.309Z,52.42
2018-08-24T22:32:54.654Z,52.77
2018-08-24T22:35:23.093Z,53.68
2018-08-24T22:37:51.383Z,52.22
2018-08-24T22:40:19.697Z,52.57
2018-08-24T22:42:47.967Z,51.86
2018-08-24T22:45:16.264Z,52.30
2018-08-24T22:47:44.564Z,51.40
2018-08-24T22:50:12.927Z,51.92
2018-08-24T22:52:41.472Z,51.30
2018-08-24T22:55:10.353Z,51.73
2018-08-24T22:57:38.743Z,51.07
2018-08-24T23:00:07.188Z,50.53
2018-08-24T23:02:35.576Z,51.92
2018-08-24T23:05:03.851Z,52.57
2018-08-24T23:07:35.108Z,52.16
2018-08-24T23:10:03.472Z,52.45
2018-08-24T23:12:31.795Z,52.65
2018-08-24T23:15:00.106Z,51.80
2018-08-24T23:17:28.405Z,51.54
2018-08-24T23:19:56.799Z,52.08
2018-08-24T23:22:25.117Z,51.23
2018-08-24T23:24:53.384Z,51.67
2018-08-24T23:27:21.694Z,50.97
2018-08-24T23:29:50.090Z,51.68
2018-08-24T23:32:18.552Z,51.06
2018-08-24T23:34:47.003Z,50.69
2018-08-24T23:37:15.507Z,51.34
2018-08-24T23:39:43.901Z,51.31
2018-08-24T23:42:12.272Z,51.32
2018-08-24T23:44:40.795Z,51.87
2018-08-24T23:47:09.176Z,52.47
2018-08-24T23:49:38.578Z,52.87
2018-08-24T23:52:07.079Z,52.16
2018-08-24T23:54:35.551Z,52.98
2018-08-24T23:57:04.026Z,53.52
2018-08-24T23:59:32.616Z,54.02
